GVBA

Rabil Airport

Rabil, Cape Verde
METAR GVBA 190700Z 02006KT 9999 BKN014 23/20 Q1013 NOSIG
Observed Flight Rules
Jul-19 @ 07:00 UTC (48 minutes ago) Marginal Visual Flight Rules
Wind Visibility Clouds
20° at 6 knots 10,000+ meters
  • Broken at 1,400' AGL
Temperatures Readings
Current 23°C / 73°F
Dewpoint 20°C / 68°F
Humidity 83%
Altimeter 29.91" Hg
Pressure 1013 hPa
Elevation 22
METAR GVBA 190700Z 02006KT 9999 BKN014 23/20 Q1013 NOSIG
Observed Flight Rules
Jul-19 @ 07:00 UTC
(48 minutes ago)
MVFR
Wind Visibility
20° at 6 knots 10,000+ meters
Clouds
  • Broken at 1,400' AGL
Temperature Dewpoint
23°C / 73°F 20°C / 68°F
Humidity Altimeter Pressure
83% 29.91" Hg 1013 hPa